createdAt,value
2019-02-12T00:01:11.106Z,100040.15
2019-02-12T00:03:42.197Z,100044.79
2019-02-12T00:06:12.770Z,100054.57
2019-02-12T00:08:43.415Z,100055.68
2019-02-12T00:11:14.042Z,100058.50
2019-02-12T00:13:45.087Z,100056.66
2019-02-12T00:16:15.715Z,100065.77
2019-02-12T00:18:46.335Z,100071.34
2019-02-12T00:21:16.889Z,100069.96
2019-02-12T00:23:47.908Z,100075.46
2019-02-12T00:26:18.479Z,100081.22
2019-02-12T00:28:49.083Z,100090.45
2019-02-12T00:31:19.548Z,100086.02
2019-02-12T00:33:50.156Z,100087.71
2019-02-12T00:36:20.784Z,100080.59
2019-02-12T00:38:52.329Z,100079.34
2019-02-12T00:41:23.163Z,100079.75
2019-02-12T00:43:54.103Z,100086.78
2019-02-12T00:46:24.699Z,100091.61
2019-02-12T00:48:55.281Z,100086.71
2019-02-12T00:51:25.861Z,100078.66
2019-02-12T00:53:56.830Z,100083.45
2019-02-12T00:56:27.982Z,100089.27
2019-02-12T00:58:59.381Z,100102.05
2019-02-12T01:01:30.516Z,100111.28
2019-02-12T01:04:01.206Z,100120.39
2019-02-12T01:06:31.843Z,100117.66
2019-02-12T01:09:04.876Z,100115.34
2019-02-12T01:11:35.527Z,100114.87
2019-02-12T01:14:05.753Z,100115.25
2019-02-12T01:16:36.590Z,100124.84
2019-02-12T01:19:07.256Z,100130.07
2019-02-12T01:21:38.306Z,100132.37
2019-02-12T01:24:09.505Z,100126.78
2019-02-12T01:26:40.067Z,100131.13
2019-02-12T01:29:10.644Z,100134.26
2019-02-12T01:31:41.302Z,100127.19
2019-02-12T01:34:11.866Z,100124.84
2019-02-12T01:36:42.908Z,100120.80
2019-02-12T01:39:13.314Z,100123.83
2019-02-12T01:41:43.560Z,100128.19
2019-02-12T01:44:13.865Z,100132.70
2019-02-12T01:46:45.023Z,100138.11
2019-02-12T01:49:22.307Z,100135.58
2019-02-12T01:51:55.953Z,100141.59
2019-02-12T01:54:26.750Z,100152.78
2019-02-12T01:56:57.022Z,100146.14
2019-02-12T01:59:27.912Z,100151.09
2019-02-12T02:02:00.200Z,100141.69
2019-02-12T02:04:30.899Z,100140.64
2019-02-12T02:07:01.442Z,100147.83
2019-02-12T02:09:31.654Z,100143.27
2019-02-12T02:12:02.208Z,100148.65
2019-02-12T02:14:33.702Z,100141.84
2019-02-12T02:17:04.792Z,100140.66
2019-02-12T02:19:36.616Z,100138.59
2019-02-12T02:22:07.183Z,100135.55
2019-02-12T02:24:37.718Z,100142.64
2019-02-12T02:27:08.307Z,100140.53
2019-02-12T02:29:38.559Z,100140.99
2019-02-12T02:32:09.195Z,100143.72
2019-02-12T02:34:40.135Z,100137.14
2019-02-12T02:37:10.770Z,100135.87
2019-02-12T02:39:42.841Z,100134.52
2019-02-12T02:42:13.775Z,100136.74
2019-02-12T02:44:44.116Z,100137.71
2019-02-12T02:47:15.652Z,100144.83
2019-02-12T02:49:46.291Z,100144.88
2019-02-12T02:52:17.324Z,100145.44
2019-02-12T02:54:47.881Z,100151.45
2019-02-12T02:57:18.504Z,100151.96
2019-02-12T02:59:49.732Z,100156.49
2019-02-12T03:02:20.282Z,100163.61
2019-02-12T03:04:50.598Z,100168.09
2019-02-12T03:07:21.115Z,100169.90
2019-02-12T03:09:51.750Z,100169.90
2019-02-12T03:12:22.694Z,100169.00
2019-02-12T03:14:54.002Z,100166.00
2019-02-12T03:19:37.324Z,100152.16
2019-02-12T03:22:07.867Z,100160.45
2019-02-12T03:24:38.481Z,100158.73
2019-02-12T03:27:09.088Z,100155.66
2019-02-12T03:29:39.981Z,100162.09
2019-02-12T03:32:10.260Z,100160.30
2019-02-12T03:34:41.702Z,100163.33
2019-02-12T03:37:12.382Z,100171.45
2019-02-12T03:39:43.758Z,100171.45
2019-02-12T03:42:14.305Z,100165.83
2019-02-12T03:44:45.785Z,100174.98
2019-02-12T03:47:16.069Z,100174.58
2019-02-12T03:49:46.674Z,100176.84
2019-02-12T03:52:17.219Z,100185.17
2019-02-12T03:54:47.490Z,100186.89
2019-02-12T03:57:18.398Z,100184.59
2019-02-12T03:59:49.128Z,100186.33
2019-02-12T04:02:19.750Z,100189.72
2019-02-12T04:04:52.313Z,100200.14
2019-02-12T04:07:23.384Z,100197.42
2019-02-12T04:09:54.727Z,100199.05
2019-02-12T04:12:25.761Z,100207.40
2019-02-12T04:14:55.959Z,100207.40
2019-02-12T04:17:26.174Z,100221.22
2019-02-12T04:19:57.061Z,100221.95
2019-02-12T04:22:28.198Z,100226.64
2019-02-12T04:24:58.803Z,100226.53
2019-02-12T04:27:29.108Z,100229.85
2019-02-12T04:29:59.987Z,100230.25
2019-02-12T04:32:30.543Z,100236.45
2019-02-12T04:35:01.467Z,100236.03
2019-02-12T04:37:38.749Z,100239.59
2019-02-12T04:40:10.262Z,100241.01
2019-02-12T04:42:41.600Z,100239.30
2019-02-12T04:45:11.845Z,100245.48
2019-02-12T04:47:42.769Z,100247.61
2019-02-12T04:50:13.604Z,100241.94
2019-02-12T04:52:44.345Z,100251.66
2019-02-12T04:55:15.214Z,100253.54
2019-02-12T04:57:46.350Z,100248.39
2019-02-12T05:00:16.982Z,100251.16
2019-02-12T05:02:47.992Z,100242.52
2019-02-12T05:05:18.228Z,100246.11
2019-02-12T05:07:49.188Z,100249.34
2019-02-12T05:10:21.090Z,100246.89
2019-02-12T05:12:52.090Z,100248.38
2019-02-12T05:15:23.043Z,100248.50
2019-02-12T05:17:53.978Z,100252.52
2019-02-12T05:20:24.517Z,100243.77
2019-02-12T05:22:54.845Z,100240.28
2019-02-12T05:25:25.573Z,100242.53
2019-02-12T05:27:56.161Z,100241.63
2019-02-12T05:30:27.267Z,100242.42
2019-02-12T05:32:58.646Z,100248.41
2019-02-12T05:35:29.945Z,100252.28
2019-02-12T05:38:00.883Z,100251.78
2019-02-12T05:40:31.697Z,100246.11
2019-02-12T05:43:01.927Z,100256.63
2019-02-12T05:45:32.669Z,100251.28
2019-02-12T05:48:03.288Z,100247.70
2019-02-12T05:50:34.136Z,100253.28
2019-02-12T05:53:06.603Z,100246.16
2019-02-12T05:55:36.945Z,100239.58
2019-02-12T05:58:07.586Z,100237.00
2019-02-12T06:00:38.284Z,100238.05
2019-02-12T06:03:09.247Z,100235.55
2019-02-12T06:05:39.889Z,100235.50
2019-02-12T06:08:12.169Z,100239.77
2019-02-12T06:10:42.842Z,100254.45
2019-02-12T06:13:13.402Z,100252.03
2019-02-12T06:15:44.109Z,100257.55
2019-02-12T06:18:15.425Z,100259.97
2019-02-12T06:20:45.892Z,100266.42
2019-02-12T06:23:17.576Z,100271.08
2019-02-12T06:25:48.188Z,100272.34
2019-02-12T06:28:18.738Z,100271.36
2019-02-12T06:30:50.191Z,100274.37
2019-02-12T06:33:20.808Z,100272.55
2019-02-12T06:35:51.763Z,100282.19
2019-02-12T06:38:22.290Z,100286.06
2019-02-12T06:40:53.056Z,100289.91
2019-02-12T06:43:23.675Z,100286.80
2019-02-12T06:45:54.302Z,100285.88
2019-02-12T06:48:25.243Z,100285.43
2019-02-12T06:50:56.183Z,100285.43
2019-02-12T06:53:27.506Z,100277.44
2019-02-12T06:55:59.179Z,100282.19
2019-02-12T06:58:30.039Z,100275.14
2019-02-12T07:01:00.910Z,100271.59
2019-02-12T07:03:50.008Z,100269.74
2019-02-12T07:06:38.468Z,100266.19
2019-02-12T07:09:18.414Z,100269.30
2019-02-12T07:12:21.939Z,100270.53
2019-02-12T07:15:15.074Z,100275.69
2019-02-12T07:18:25.107Z,100273.84
2019-02-12T07:21:31.648Z,100273.03
2019-02-12T07:24:49.220Z,100284.79
2019-02-12T07:27:56.532Z,100294.78
2019-02-12T07:31:21.830Z,100298.55
2019-02-12T07:34:25.107Z,100303.48
2019-02-12T07:37:40.928Z,100299.78
2019-02-12T07:40:51.660Z,100311.20
2019-02-12T07:43:56.844Z,100318.65
2019-02-12T07:47:06.923Z,100326.50
2019-02-12T07:50:13.374Z,100332.56
2019-02-12T07:53:07.149Z,100335.52
2019-02-12T07:55:53.130Z,100341.64
2019-02-12T07:58:59.501Z,100348.84
2019-02-12T08:02:08.413Z,100355.71
2019-02-12T08:05:11.201Z,100361.43
2019-02-12T08:08:31.656Z,100371.55
2019-02-12T08:11:16.647Z,100366.82
2019-02-12T08:14:29.828Z,100372.55
2019-02-12T08:17:43.920Z,100375.00
2019-02-12T08:20:51.574Z,100380.50
2019-02-12T08:23:42.932Z,100374.23
2019-02-12T08:26:57.016Z,100377.88
2019-02-12T08:30:11.737Z,100371.26
2019-02-12T08:33:20.883Z,100367.22
2019-02-12T08:36:22.091Z,100367.94
2019-02-12T08:39:19.685Z,100372.74
2019-02-12T08:42:04.736Z,100370.89
2019-02-12T08:45:00.390Z,100378.67
2019-02-12T08:48:06.617Z,100384.95
2019-02-12T08:51:13.404Z,100381.22
2019-02-12T08:54:18.873Z,100370.80
2019-02-12T08:57:32.716Z,100378.63
2019-02-12T09:00:43.670Z,100381.33
2019-02-12T09:03:37.252Z,100382.81
2019-02-12T09:06:39.969Z,100374.86
2019-02-12T09:09:50.504Z,100382.81
2019-02-12T09:13:11.015Z,100383.14
2019-02-12T09:16:04.332Z,100385.56
2019-02-12T09:19:03.446Z,100391.55
2019-02-12T09:22:20.573Z,100393.63
2019-02-12T09:25:09.356Z,100395.88
2019-02-12T09:28:01.521Z,100400.31
2019-02-12T09:31:22.703Z,100396.02
2019-02-12T09:34:24.372Z,100393.55
2019-02-12T09:38:06.660Z,100401.56
2019-02-12T09:41:11.862Z,100404.56
2019-02-12T09:44:29.601Z,100409.70
2019-02-12T09:47:43.594Z,100408.81
2019-02-12T09:51:00.390Z,100412.50
2019-02-12T09:54:26.323Z,100405.45
2019-02-12T09:57:43.653Z,100403.61
2019-02-12T10:00:33.802Z,100402.04
2019-02-12T10:03:57.027Z,100410.33
2019-02-12T10:07:01.990Z,100419.42
2019-02-12T10:10:15.790Z,100418.52
2019-02-12T10:12:58.413Z,100425.92
2019-02-12T10:15:57.319Z,100429.34
2019-02-12T10:19:11.522Z,100433.32
2019-02-12T10:22:11.366Z,100434.83
2019-02-12T10:25:13.378Z,100441.08
2019-02-12T10:28:08.860Z,100446.73
2019-02-12T10:30:56.813Z,100447.31
2019-02-12T10:33:27.534Z,100450.83
2019-02-12T10:35:58.537Z,100451.83
2019-02-12T10:38:29.721Z,100451.27
2019-02-12T10:41:00.340Z,100461.78
2019-02-12T10:43:30.710Z,100455.86
2019-02-12T10:46:01.768Z,100460.55
2019-02-12T10:48:32.094Z,100465.41
2019-02-12T10:51:03.075Z,100464.87
2019-02-12T10:53:33.407Z,100461.48
2019-02-12T10:56:04.694Z,100468.19
2019-02-12T10:58:35.482Z,100462.34
2019-02-12T11:01:06.670Z,100461.72
2019-02-12T11:03:37.012Z,100461.14
2019-02-12T11:06:07.795Z,100466.30
2019-02-12T11:08:38.065Z,100465.66
2019-02-12T11:11:10.489Z,100468.19
2019-02-12T11:13:41.158Z,100464.02
2019-02-12T11:16:11.642Z,100454.63
2019-02-12T11:18:42.685Z,100463.55
2019-02-12T11:21:13.367Z,100462.55
2019-02-12T11:23:44.481Z,100451.95
2019-02-12T11:26:14.997Z,100453.69
2019-02-12T11:28:45.620Z,100457.44
2019-02-12T11:31:16.567Z,100458.04
2019-02-12T11:33:46.961Z,100456.56
2019-02-12T11:36:17.503Z,100456.27
2019-02-12T11:38:48.714Z,100455.91
2019-02-12T11:41:18.916Z,100454.66
2019-02-12T11:43:49.194Z,100461.29
2019-02-12T11:46:19.486Z,100461.34
2019-02-12T11:48:50.054Z,100463.48
2019-02-12T11:51:20.740Z,100457.59
2019-02-12T11:53:51.432Z,100453.11
2019-02-12T11:56:21.811Z,100446.69
2019-02-12T11:58:52.100Z,100449.31
2019-02-12T12:01:25.375Z,100439.59
2019-02-12T12:03:56.281Z,100442.25
2019-02-12T12:06:26.841Z,100440.41
2019-02-12T12:08:57.091Z,100441.13
2019-02-12T12:11:27.695Z,100437.02
2019-02-12T12:13:57.939Z,100436.20
2019-02-12T12:16:28.191Z,100437.69
2019-02-12T12:18:58.760Z,100428.68
2019-02-12T12:21:29.053Z,100422.64
2019-02-12T12:23:59.580Z,100424.38
2019-02-12T12:26:30.155Z,100418.61
2019-02-12T12:29:00.500Z,100414.09
2019-02-12T12:31:31.441Z,100404.62
2019-02-12T12:34:02.168Z,100404.78
2019-02-12T12:36:32.768Z,100399.73
2019-02-12T12:39:04.345Z,100391.36
2019-02-12T12:41:36.653Z,100393.32
2019-02-12T12:44:07.025Z,100400.06
2019-02-12T12:46:37.231Z,100403.02
2019-02-12T12:49:08.714Z,100407.55
2019-02-12T12:51:39.343Z,100411.30
2019-02-12T12:54:09.611Z,100415.31
2019-02-12T12:56:40.199Z,100411.10
2019-02-12T12:59:10.633Z,100409.28
2019-02-12T13:01:41.025Z,100409.44
2019-02-12T13:04:11.684Z,100407.20
2019-02-12T13:06:42.318Z,100402.11
2019-02-12T13:09:12.947Z,100403.30
2019-02-12T13:11:44.730Z,100407.91
2019-02-12T13:14:15.643Z,100421.59
2019-02-12T13:16:46.174Z,100416.69
2019-02-12T13:19:16.798Z,100424.34
2019-02-12T13:21:47.354Z,100415.28
2019-02-12T13:24:18.285Z,100415.41
2019-02-12T13:26:48.981Z,100409.30
2019-02-12T13:29:19.745Z,100410.23
2019-02-12T13:31:50.061Z,100406.16
2019-02-12T13:34:20.334Z,100404.79
2019-02-12T13:36:50.600Z,100399.81
2019-02-12T13:39:21.384Z,100395.23
2019-02-12T13:41:51.983Z,100396.29
2019-02-12T13:44:22.615Z,100402.13
2019-02-12T13:46:52.919Z,100406.14
2019-02-12T13:49:23.677Z,100400.48
2019-02-12T13:51:54.307Z,100398.84
2019-02-12T13:54:24.938Z,100403.83
2019-02-12T13:56:56.274Z,100397.99
2019-02-12T13:59:31.026Z,100399.25
2019-02-12T14:02:03.352Z,100390.62
2019-02-12T14:04:34.224Z,100396.70
2019-02-12T14:07:05.512Z,100392.28
2019-02-12T14:09:35.893Z,100395.02
2019-02-12T14:12:06.409Z,100389.39
2019-02-12T14:14:36.925Z,100387.66
2019-02-12T14:17:07.586Z,100395.52
2019-02-12T14:19:38.529Z,100392.02
2019-02-12T14:22:09.568Z,100389.66
2019-02-12T14:24:40.303Z,100396.81
2019-02-12T14:27:10.916Z,100394.61
2019-02-12T14:29:41.224Z,100389.18
2019-02-12T14:32:11.816Z,100395.19
2019-02-12T14:34:42.834Z,100395.71
2019-02-12T14:37:13.487Z,100387.51
2019-02-12T14:39:44.076Z,100390.20
2019-02-12T14:42:14.593Z,100384.41
2019-02-12T14:44:45.359Z,100390.18
2019-02-12T14:47:15.671Z,100393.88
2019-02-12T14:49:46.219Z,100386.36
2019-02-12T14:52:17.149Z,100381.24
2019-02-12T14:54:47.784Z,100390.44
2019-02-12T14:57:17.990Z,100383.82
2019-02-12T14:59:48.638Z,100376.52
2019-02-12T15:02:19.281Z,100376.78
2019-02-12T15:04:49.903Z,100378.98
2019-02-12T15:07:20.534Z,100375.27
2019-02-12T15:09:51.063Z,100372.97
2019-02-12T15:12:21.899Z,100371.70
2019-02-12T15:14:52.529Z,100369.03
2019-02-12T15:17:22.738Z,100366.34
2019-02-12T15:19:53.457Z,100365.38
2019-02-12T15:22:23.703Z,100363.66
2019-02-12T15:24:53.978Z,100373.86
2019-02-12T15:27:24.870Z,100370.23
2019-02-12T15:29:56.039Z,100364.47
2019-02-12T15:32:27.108Z,100365.39
2019-02-12T15:34:57.421Z,100366.53
2019-02-12T15:37:28.324Z,100361.94
2019-02-12T15:39:59.362Z,100365.34
2019-02-12T15:42:30.200Z,100361.20
2019-02-12T15:45:01.859Z,100355.27
2019-02-12T15:47:32.385Z,100363.86
2019-02-12T15:50:02.682Z,100360.09
2019-02-12T15:52:33.863Z,100353.65
2019-02-12T15:55:04.487Z,100360.05
2019-02-12T15:57:35.192Z,100373.41
2019-02-12T16:00:09.694Z,100368.18
2019-02-12T16:02:40.790Z,100371.66
2019-02-12T16:05:12.572Z,100371.22
2019-02-12T16:07:45.252Z,100366.24
2019-02-12T16:10:17.780Z,100366.70
2019-02-12T16:12:51.322Z,100374.52
2019-02-12T16:15:24.285Z,100376.30
2019-02-12T16:17:53.526Z,100372.91
2019-02-12T16:20:23.811Z,100369.84
2019-02-12T16:22:54.015Z,100368.83
2019-02-12T16:25:24.241Z,100368.48
2019-02-12T16:27:55.276Z,100373.92
2019-02-12T16:30:26.953Z,100363.55
2019-02-12T16:32:57.558Z,100355.37
2019-02-12T16:35:28.221Z,100362.17
2019-02-12T16:37:59.260Z,100358.44
2019-02-12T16:40:30.302Z,100356.68
2019-02-12T16:43:01.473Z,100352.87
2019-02-12T16:45:35.994Z,100354.56
2019-02-12T16:48:06.996Z,100348.70
2019-02-12T16:50:37.951Z,100344.33
2019-02-12T16:53:09.091Z,100349.17
2019-02-12T16:55:39.355Z,100351.73
2019-02-12T16:58:09.724Z,100354.76
2019-02-12T17:00:40.694Z,100354.07
2019-02-12T17:03:11.317Z,100355.92
2019-02-12T17:05:42.091Z,100366.52
2019-02-12T17:08:12.682Z,100376.16
2019-02-12T17:10:43.302Z,100377.05
2019-02-12T17:13:14.063Z,100372.69
2019-02-12T17:15:44.840Z,100377.89
2019-02-12T17:18:15.087Z,100372.93
2019-02-12T17:20:46.051Z,100370.70
2019-02-12T17:23:16.719Z,100374.52
2019-02-12T17:25:47.012Z,100388.02
2019-02-12T17:28:17.535Z,100386.60
2019-02-12T17:30:48.120Z,100387.75
2019-02-12T17:33:19.687Z,100386.27
2019-02-12T17:35:49.909Z,100394.50
2019-02-12T17:38:20.515Z,100398.24
2019-02-12T17:40:51.416Z,100397.27
2019-02-12T17:43:22.356Z,100396.29
2019-02-12T17:45:53.053Z,100395.70
2019-02-12T17:48:23.387Z,100395.86
2019-02-12T17:50:54.149Z,100400.42
2019-02-12T17:53:24.773Z,100405.87
2019-02-12T17:55:54.957Z,100405.23
2019-02-12T17:58:25.567Z,100402.84
2019-02-12T18:00:55.992Z,100407.93
2019-02-12T18:03:27.011Z,100419.50
2019-02-12T18:05:57.339Z,100413.83
2019-02-12T18:08:27.617Z,100415.67
2019-02-12T18:10:58.887Z,100417.42
2019-02-12T18:13:29.638Z,100422.77
2019-02-12T18:15:59.965Z,100432.52
2019-02-12T18:18:31.006Z,100440.11
2019-02-12T18:21:02.236Z,100436.64
2019-02-12T18:23:32.876Z,100438.41
2019-02-12T18:26:04.160Z,100430.22
2019-02-12T18:28:34.431Z,100435.65
2019-02-12T18:31:04.645Z,100441.00
2019-02-12T18:33:35.238Z,100430.12
2019-02-12T18:36:05.593Z,100425.37
2019-02-12T18:38:36.464Z,100429.38
2019-02-12T18:41:06.900Z,100426.92
2019-02-12T18:43:37.821Z,100434.91
2019-02-12T18:46:07.999Z,100434.97
2019-02-12T18:48:38.580Z,100441.61
2019-02-12T18:51:09.511Z,100437.02
2019-02-12T18:53:42.036Z,100440.92
2019-02-12T18:56:12.320Z,100442.62
2019-02-12T18:58:43.198Z,100437.21
2019-02-12T19:01:13.652Z,100443.77
2019-02-12T19:03:44.820Z,100449.88
2019-02-12T19:06:15.418Z,100454.77
2019-02-12T19:08:46.381Z,100458.80
2019-02-12T19:11:17.715Z,100460.58
2019-02-12T19:13:48.343Z,100455.41
2019-02-12T19:16:18.695Z,100453.31
2019-02-12T19:18:51.304Z,100450.77
2019-02-12T19:21:21.588Z,100443.95
2019-02-12T19:23:52.236Z,100444.14
2019-02-12T19:26:22.881Z,100448.80
2019-02-12T19:28:54.838Z,100447.19
2019-02-12T19:31:25.296Z,100443.75
2019-02-12T19:33:56.360Z,100439.48
2019-02-12T19:36:27.495Z,100449.66
2019-02-12T19:38:58.121Z,100455.98
2019-02-12T19:41:28.728Z,100456.56
2019-02-12T19:44:00.771Z,100452.24
2019-02-12T19:46:32.142Z,100450.11
2019-02-12T19:49:02.530Z,100444.91
2019-02-12T19:51:33.085Z,100455.03
2019-02-12T19:54:03.682Z,100457.25
2019-02-12T19:56:35.639Z,100451.62
2019-02-12T19:59:06.312Z,100456.51
2019-02-12T20:01:37.607Z,100457.44
2019-02-12T20:04:08.190Z,100458.76
2019-02-12T20:06:38.833Z,100455.75
2019-02-12T20:09:14.842Z,100463.64
2019-02-12T20:11:45.145Z,100463.29
2019-02-12T20:14:15.878Z,100472.46
2019-02-12T20:16:46.476Z,100470.31
2019-02-12T20:19:16.768Z,100478.69
2019-02-12T20:21:47.663Z,100481.31
2019-02-12T20:24:18.264Z,100482.25
2019-02-12T20:26:48.567Z,100482.60
2019-02-12T20:29:19.637Z,100475.92
2019-02-12T20:31:49.962Z,100474.55
2019-02-12T20:34:20.967Z,100476.80
2019-02-12T20:36:51.838Z,100473.36
2019-02-12T20:39:22.474Z,100479.59
2019-02-12T20:41:53.407Z,100481.41
2019-02-12T20:44:24.778Z,100476.23
2019-02-12T20:46:55.082Z,100481.86
2019-02-12T20:49:25.719Z,100481.47
2019-02-12T20:51:56.022Z,100480.93
2019-02-12T20:54:26.969Z,100483.62
2019-02-12T20:56:57.648Z,100492.02
2019-02-12T20:59:28.443Z,100476.30
2019-02-12T21:01:58.762Z,100481.55
2019-02-12T21:04:29.043Z,100482.02
2019-02-12T21:06:59.611Z,100490.55
2019-02-12T21:09:30.606Z,100474.39
2019-02-12T21:12:01.869Z,100480.96
2019-02-12T21:14:32.544Z,100489.74
2019-02-12T21:17:02.912Z,100491.48
2019-02-12T21:19:33.498Z,100486.19
2019-02-12T21:22:04.438Z,100490.61
2019-02-12T21:24:35.060Z,100499.79
2019-02-12T21:27:05.797Z,100498.08
2019-02-12T21:29:36.068Z,100500.77
2019-02-12T21:32:06.417Z,100502.13
2019-02-12T21:34:36.716Z,100499.55
2019-02-12T21:37:07.043Z,100499.05
2019-02-12T21:39:37.844Z,100503.91
2019-02-12T21:42:08.774Z,100500.89
2019-02-12T21:44:39.820Z,100501.36
2019-02-12T21:47:10.153Z,100504.42
2019-02-12T21:49:41.089Z,100496.88
2019-02-12T21:52:11.421Z,100501.66
2019-02-12T21:54:41.983Z,100506.52
2019-02-12T21:57:12.656Z,100508.75
2019-02-12T21:59:44.142Z,100510.06
2019-02-12T22:02:14.764Z,100504.36
2019-02-12T22:04:45.348Z,100503.98
2019-02-12T22:07:16.370Z,100503.56
2019-02-12T22:09:47.052Z,100500.53
2019-02-12T22:12:17.687Z,100500.13
2019-02-12T22:14:48.316Z,100508.05
2019-02-12T22:17:19.362Z,100504.58
2019-02-12T22:19:50.406Z,100495.83
2019-02-12T22:22:21.036Z,100493.63
2019-02-12T22:24:51.640Z,100492.27
2019-02-12T22:27:22.200Z,100505.36
2019-02-12T22:29:52.865Z,100510.63
2019-02-12T22:32:23.440Z,100504.05
2019-02-12T22:34:54.398Z,100501.47
2019-02-12T22:37:25.033Z,100497.53
2019-02-12T22:39:55.661Z,100494.89
2019-02-12T22:42:26.911Z,100498.37
2019-02-12T22:44:58.783Z,100506.23
2019-02-12T22:47:29.086Z,100509.73
2019-02-12T22:49:59.817Z,100502.79
2019-02-12T22:52:30.221Z,100499.80
2019-02-12T22:55:00.520Z,100505.08
2019-02-12T22:57:31.184Z,100508.17
2019-02-12T23:00:01.873Z,100505.52
2019-02-12T23:02:33.603Z,100498.05
2019-02-12T23:05:03.832Z,100502.84
2019-02-12T23:07:34.150Z,100504.45
2019-02-12T23:10:05.315Z,100515.43
2019-02-12T23:12:35.871Z,100516.80
2019-02-12T23:15:07.932Z,100515.06
2019-02-12T23:17:38.136Z,100513.34
2019-02-12T23:20:08.844Z,100504.17
2019-02-12T23:22:39.788Z,100496.80
2019-02-12T23:25:10.416Z,100499.44
2019-02-12T23:27:41.823Z,100503.86
2019-02-12T23:30:12.137Z,100515.26
2019-02-12T23:32:43.132Z,100494.25
2019-02-12T23:35:13.888Z,100506.94
2019-02-12T23:37:45.934Z,100506.54
2019-02-12T23:40:16.137Z,100511.33
2019-02-12T23:42:47.360Z,100509.14
2019-02-12T23:45:17.583Z,100507.86
2019-02-12T23:47:49.194Z,100513.55
2019-02-12T23:50:19.470Z,100517.05
2019-02-12T23:52:49.692Z,100516.62
2019-02-12T23:55:20.340Z,100510.93
2019-02-12T23:57:50.611Z,100503.52
